Washington, DC (20597)

8:25 PM EDT on July 30, 2016 (GMT -0400)
The Washington Post | | Change Station

Elev 151 ft 38.90 °N, 77.03 °W | Updated 8 seconds ago

Light Rain
Light Rain
75.6 °F
Feels Like 76 °F
N
2.0
Wind Variable Wind from WSW
Gusts 16.0 mph

Today
High -- | Low -- °F
--% Chance of Precip.
Yesterday
High -- | Low -- °F
Precip. -- in
Pressure 29.98 in
Visibility 10.0 miles
Clouds Scattered Clouds 1800 ft
Scattered Clouds 3200 ft
Overcast 4300 ft
Heat Index 76 °F
Dew Point 71 °F
Humidity 87%
Rainfall 0.25 in
Snow Depth Not available.
6:07 AM 8:20 PM
Waning Crescent, 10% visible
SPECI KDCA 310017Z 28013KT 10SM -RA SCT018 SCT032 OVC043 26/23 A2998 RMK AO2 WSHFT 0002 TSE02 OCNL LTGICCC DSNT NE CB DSNT NE MOV E P0003 T02560228 $
Pressure 29.98 in
Visibility 10.0 miles
Clouds Scattered Clouds 1800 ft
Scattered Clouds 3200 ft
Overcast 4300 ft
Heat Index 76 °F
Dew Point 71 °F
Humidity 87%
Rainfall 0.25 in
Snow Depth Not available.
6:07 AM 8:20 PM
Waning Crescent, 10% visible
SPECI KDCA 310017Z 28013KT 10SM -RA SCT018 SCT032 OVC043 26/23 A2998 RMK AO2 WSHFT 0002 TSE02 OCNL LTGICCC DSNT NE CB DSNT NE MOV E P0003 T02560228 $

10-Day Weather Forecast

Almanac

Astronomy

Jul. 30, 2016 Rise Set
Actual Time
Civil Twilight
Nautical Twilight
Astronomical Twilight
Moon
Length of Visible Light
Length of Day
Tomorrow will be .
, % of the Moon is Illuminated

Today's Extremes

State Highs State Lows

Community

WunderPhotos

Upload Photos

1,928,682 photos uploaded!

WunderBlog® & News

Nearby

Air Quality

  Air Quality AQ Index Pollutant
Not available.

Snow Depth

Station Depth Elevation

Earthquake Activity

City Distance Mag. Time & Date
Minimum magnitude displayed is 2.5.

Coastal Water Temperatures

Place Temperature

Stations

Nearby Weather Stations

Station Location Temp. Windchill Dew Point Humidity Wind Precip. Elev Updated Type
                   

Watches & Warnings

There are currently no watches in effect.